sensor_id;sensor_type;location;lat;lon;timestamp;P1;durP1;ratioP1;P2;durP2;ratioP2
55776;SDS011;54079;44.540;18.784;2023-06-24T00:00:07;3.22;;;1.70;;
55776;SDS011;54079;44.540;18.784;2023-06-24T00:02:37;3.58;;;1.77;;
55776;SDS011;54079;44.540;18.784;2023-06-24T00:05:03;2.42;;;1.48;;
55776;SDS011;54079;44.540;18.784;2023-06-24T00:07:31;3.20;;;1.95;;
55776;SDS011;54079;44.540;18.784;2023-06-24T00:09:57;3.55;;;2.45;;
55776;SDS011;54079;44.540;18.784;2023-06-24T00:12:22;5.28;;;2.55;;
55776;SDS011;54079;44.540;18.784;2023-06-24T00:14:49;4.95;;;2.20;;
55776;SDS011;54079;44.540;18.784;2023-06-24T00:17:15;3.47;;;1.73;;
55776;SDS011;54079;44.540;18.784;2023-06-24T00:19:41;6.55;;;3.22;;
55776;SDS011;54079;44.540;18.784;2023-06-24T00:22:09;4.35;;;2.72;;
55776;SDS011;54079;44.540;18.784;2023-06-24T00:24:35;4.60;;;2.28;;
55776;SDS011;54079;44.540;18.784;2023-06-24T00:27:00;5.10;;;1.75;;
55776;SDS011;54079;44.540;18.784;2023-06-24T00:29:26;3.03;;;2.45;;
55776;SDS011;54079;44.540;18.784;2023-06-24T00:31:52;5.45;;;2.88;;
55776;SDS011;54079;44.540;18.784;2023-06-24T00:34:18;3.78;;;2.00;;
55776;SDS011;54079;44.540;18.784;2023-06-24T00:36:48;3.97;;;2.05;;
55776;SDS011;54079;44.540;18.784;2023-06-24T00:39:15;10.13;;;2.30;;
55776;SDS011;54079;44.540;18.784;2023-06-24T00:41:41;3.08;;;2.17;;
55776;SDS011;54079;44.540;18.784;2023-06-24T00:44:07;3.03;;;1.50;;
55776;SDS011;54079;44.540;18.784;2023-06-24T00:46:34;1.98;;;1.58;;
55776;SDS011;54079;44.540;18.784;2023-06-24T00:49:00;3.05;;;1.70;;
55776;SDS011;54079;44.540;18.784;2023-06-24T00:51:28;1.92;;;1.45;;
55776;SDS011;54079;44.540;18.784;2023-06-24T00:53:59;4.32;;;2.30;;
55776;SDS011;54079;44.540;18.784;2023-06-24T00:56:27;1.85;;;1.70;;
55776;SDS011;54079;44.540;18.784;2023-06-24T00:58:57;2.88;;;2.03;;
55776;SDS011;54079;44.540;18.784;2023-06-24T01:01:26;7.25;;;2.20;;
55776;SDS011;54079;44.540;18.784;2023-06-24T01:04:00;2.97;;;1.73;;
55776;SDS011;54079;44.540;18.784;2023-06-24T01:06:28;2.03;;;1.77;;
55776;SDS011;54079;44.540;18.784;2023-06-24T01:08:58;5.18;;;2.40;;
55776;SDS011;54079;44.540;18.784;2023-06-24T01:11:26;8.02;;;2.80;;
55776;SDS011;54079;44.540;18.784;2023-06-24T01:13:52;2.40;;;1.23;;
55776;SDS011;54079;44.540;18.784;2023-06-24T01:16:22;1.50;;;1.08;;
55776;SDS011;54079;44.540;18.784;2023-06-24T01:18:57;1.50;;;1.10;;
55776;SDS011;54079;44.540;18.784;2023-06-24T01:33:49;1.88;;;1.55;;
55776;SDS011;54079;44.540;18.784;2023-06-24T01:36:37;1.75;;;1.60;;
55776;SDS011;54079;44.540;18.784;2023-06-24T01:39:08;3.35;;;1.65;;
55776;SDS011;54079;44.540;18.784;2023-06-24T01:41:37;2.55;;;2.05;;
55776;SDS011;54079;44.540;18.784;2023-06-24T01:44:06;3.38;;;2.53;;
55776;SDS011;54079;44.540;18.784;2023-06-24T01:46:35;4.25;;;1.73;;
55776;SDS011;54079;44.540;18.784;2023-06-24T01:49:02;2.13;;;1.42;;
55776;SDS011;54079;44.540;18.784;2023-06-24T01:51:32;1.98;;;1.35;;
55776;SDS011;54079;44.540;18.784;2023-06-24T01:54:04;4.00;;;2.10;;
55776;SDS011;54079;44.540;18.784;2023-06-24T01:56:35;4.93;;;1.92;;
55776;SDS011;54079;44.540;18.784;2023-06-24T01:59:03;2.13;;;1.88;;
55776;SDS011;54079;44.540;18.784;2023-06-24T02:01:30;7.22;;;1.52;;
55776;SDS011;54079;44.540;18.784;2023-06-24T02:03:58;3.00;;;1.70;;
55776;SDS011;54079;44.540;18.784;2023-06-24T02:06:26;6.30;;;1.20;;
55776;SDS011;54079;44.540;18.784;2023-06-24T02:08:55;1.65;;;1.52;;
55776;SDS011;54079;44.540;18.784;2023-06-24T02:11:23;3.13;;;1.50;;
55776;SDS011;54079;44.540;18.784;2023-06-24T02:13:51;4.18;;;2.70;;
55776;SDS011;54079;44.540;18.784;2023-06-24T02:16:20;4.65;;;2.30;;
55776;SDS011;54079;44.540;18.784;2023-06-24T02:18:47;1.85;;;1.70;;
55776;SDS011;54079;44.540;18.784;2023-06-24T02:21:14;2.42;;;2.15;;
55776;SDS011;54079;44.540;18.784;2023-06-24T02:23:43;2.45;;;1.90;;
55776;SDS011;54079;44.540;18.784;2023-06-24T02:26:09;4.13;;;2.55;;
55776;SDS011;54079;44.540;18.784;2023-06-24T02:28:36;2.72;;;1.63;;
55776;SDS011;54079;44.540;18.784;2023-06-24T02:31:04;1.42;;;1.33;;
55776;SDS011;54079;44.540;18.784;2023-06-24T02:33:31;2.75;;;1.13;;
55776;SDS011;54079;44.540;18.784;2023-06-24T02:35:57;1.67;;;1.50;;
55776;SDS011;54079;44.540;18.784;2023-06-24T02:38:23;3.72;;;1.85;;
55776;SDS011;54079;44.540;18.784;2023-06-24T02:40:49;2.35;;;1.70;;
55776;SDS011;54079;44.540;18.784;2023-06-24T02:43:16;1.83;;;1.63;;
55776;SDS011;54079;44.540;18.784;2023-06-24T02:45:42;2.28;;;1.52;;
55776;SDS011;54079;44.540;18.784;2023-06-24T02:48:10;2.15;;;1.50;;
55776;SDS011;54079;44.540;18.784;2023-06-24T02:50:38;3.40;;;1.90;;
55776;SDS011;54079;44.540;18.784;2023-06-24T02:53:06;4.28;;;2.10;;
55776;SDS011;54079;44.540;18.784;2023-06-24T02:55:33;6.57;;;1.90;;
55776;SDS011;54079;44.540;18.784;2023-06-24T02:58:00;2.13;;;1.58;;
55776;SDS011;54079;44.540;18.784;2023-06-24T03:00:27;2.53;;;1.65;;
55776;SDS011;54079;44.540;18.784;2023-06-24T03:02:59;3.92;;;2.17;;
55776;SDS011;54079;44.540;18.784;2023-06-24T03:05:29;4.15;;;2.55;;
55776;SDS011;54079;44.540;18.784;2023-06-24T03:07:57;3.92;;;2.25;;
55776;SDS011;54079;44.540;18.784;2023-06-24T03:10:24;3.72;;;1.67;;
55776;SDS011;54079;44.540;18.784;2023-06-24T03:12:51;2.25;;;1.95;;
55776;SDS011;54079;44.540;18.784;2023-06-24T03:15:17;1.92;;;1.70;;
55776;SDS011;54079;44.540;18.784;2023-06-24T03:17:43;3.97;;;2.42;;
55776;SDS011;54079;44.540;18.784;2023-06-24T03:20:09;2.45;;;2.25;;
55776;SDS011;54079;44.540;18.784;2023-06-24T03:22:35;3.60;;;1.77;;
55776;SDS011;54079;44.540;18.784;2023-06-24T03:25:02;1.63;;;1.52;;
55776;SDS011;54079;44.540;18.784;2023-06-24T03:27:28;2.58;;;2.17;;
55776;SDS011;54079;44.540;18.784;2023-06-24T03:29:54;2.97;;;1.75;;
55776;SDS011;54079;44.540;18.784;2023-06-24T03:32:19;2.65;;;1.85;;
55776;SDS011;54079;44.540;18.784;2023-06-24T03:34:45;2.30;;;1.35;;
55776;SDS011;54079;44.540;18.784;2023-06-24T03:37:11;2.15;;;1.90;;
55776;SDS011;54079;44.540;18.784;2023-06-24T03:39:37;5.43;;;2.08;;
55776;SDS011;54079;44.540;18.784;2023-06-24T03:42:03;2.40;;;1.42;;
55776;SDS011;54079;44.540;18.784;2023-06-24T03:44:29;2.90;;;1.98;;
55776;SDS011;54079;44.540;18.784;2023-06-24T03:46:55;3.03;;;1.80;;
55776;SDS011;54079;44.540;18.784;2023-06-24T03:49:21;4.63;;;2.00;;
55776;SDS011;54079;44.540;18.784;2023-06-24T03:51:47;4.63;;;3.15;;
55776;SDS011;54079;44.540;18.784;2023-06-24T03:54:13;3.60;;;2.40;;
55776;SDS011;54079;44.540;18.784;2023-06-24T03:56:39;5.53;;;3.15;;
55776;SDS011;54079;44.540;18.784;2023-06-24T03:59:05;6.13;;;2.47;;
55776;SDS011;54079;44.540;18.784;2023-06-24T04:01:30;2.78;;;2.40;;
55776;SDS011;54079;44.540;18.784;2023-06-24T04:03:59;3.65;;;2.45;;
55776;SDS011;54079;44.540;18.784;2023-06-24T04:06:25;4.95;;;4.05;;
55776;SDS011;54079;44.540;18.784;2023-06-24T04:08:51;3.72;;;2.60;;
55776;SDS011;54079;44.540;18.784;2023-06-24T04:11:17;2.38;;;2.17;;
55776;SDS011;54079;44.540;18.784;2023-06-24T04:13:44;4.32;;;2.63;;
55776;SDS011;54079;44.540;18.784;2023-06-24T04:16:11;3.40;;;2.72;;
55776;SDS011;54079;44.540;18.784;2023-06-24T04:18:36;4.35;;;2.67;;
55776;SDS011;54079;44.540;18.784;2023-06-24T04:21:04;2.78;;;2.58;;
55776;SDS011;54079;44.540;18.784;2023-06-24T04:23:32;3.13;;;2.47;;
55776;SDS011;54079;44.540;18.784;2023-06-24T04:25:58;3.25;;;1.73;;
55776;SDS011;54079;44.540;18.784;2023-06-24T04:28:24;3.28;;;1.95;;
55776;SDS011;54079;44.540;18.784;2023-06-24T04:30:51;3.53;;;2.40;;
55776;SDS011;54079;44.540;18.784;2023-06-24T04:33:17;2.38;;;2.10;;
55776;SDS011;54079;44.540;18.784;2023-06-24T04:35:43;4.25;;;2.10;;
55776;SDS011;54079;44.540;18.784;2023-06-24T04:38:09;2.08;;;1.88;;
55776;SDS011;54079;44.540;18.784;2023-06-24T04:40:35;3.72;;;2.30;;
55776;SDS011;54079;44.540;18.784;2023-06-24T04:43:02;3.53;;;2.53;;
55776;SDS011;54079;44.540;18.784;2023-06-24T04:45:28;7.50;;;3.47;;
55776;SDS011;54079;44.540;18.784;2023-06-24T04:47:53;3.10;;;2.80;;
55776;SDS011;54079;44.540;18.784;2023-06-24T04:50:19;3.72;;;3.17;;
55776;SDS011;54079;44.540;18.784;2023-06-24T04:52:45;4.15;;;3.38;;
55776;SDS011;54079;44.540;18.784;2023-06-24T04:55:18;3.53;;;3.22;;
55776;SDS011;54079;44.540;18.784;2023-06-24T04:57:44;3.40;;;3.00;;
55776;SDS011;54079;44.540;18.784;2023-06-24T05:00:10;3.83;;;3.53;;
55776;SDS011;54079;44.540;18.784;2023-06-24T05:02:36;2.97;;;2.55;;
55776;SDS011;54079;44.540;18.784;2023-06-24T05:05:02;3.20;;;2.90;;
55776;SDS011;54079;44.540;18.784;2023-06-24T05:07:28;2.25;;;2.03;;
55776;SDS011;54079;44.540;18.784;2023-06-24T05:09:54;2.25;;;2.05;;
55776;SDS011;54079;44.540;18.784;2023-06-24T05:12:19;2.78;;;2.30;;
55776;SDS011;54079;44.540;18.784;2023-06-24T05:14:49;3.28;;;2.40;;
55776;SDS011;54079;44.540;18.784;2023-06-24T05:17:17;5.30;;;3.10;;
55776;SDS011;54079;44.540;18.784;2023-06-24T05:19:43;3.25;;;2.80;;
55776;SDS011;54079;44.540;18.784;2023-06-24T05:22:09;3.42;;;2.80;;
55776;SDS011;54079;44.540;18.784;2023-06-24T05:24:34;2.75;;;2.53;;
55776;SDS011;54079;44.540;18.784;2023-06-24T05:27:07;2.60;;;2.40;;
55776;SDS011;54079;44.540;18.784;2023-06-24T05:29:34;3.75;;;2.88;;
55776;SDS011;54079;44.540;18.784;2023-06-24T05:32:00;2.50;;;2.30;;
55776;SDS011;54079;44.540;18.784;2023-06-24T05:34:28;3.20;;;2.88;;
55776;SDS011;54079;44.540;18.784;2023-06-24T05:36:54;3.72;;;3.35;;
55776;SDS011;54079;44.540;18.784;2023-06-24T05:39:20;4.07;;;3.22;;
55776;SDS011;54079;44.540;18.784;2023-06-24T05:41:46;3.28;;;3.03;;
55776;SDS011;54079;44.540;18.784;2023-06-24T05:44:13;4.95;;;3.97;;
55776;SDS011;54079;44.540;18.784;2023-06-24T05:46:39;8.73;;;7.88;;
55776;SDS011;54079;44.540;18.784;2023-06-24T05:49:05;9.80;;;8.82;;
55776;SDS011;54079;44.540;18.784;2023-06-24T05:51:31;7.88;;;7.07;;
55776;SDS011;54079;44.540;18.784;2023-06-24T05:53:57;6.13;;;4.93;;
55776;SDS011;54079;44.540;18.784;2023-06-24T05:56:23;3.22;;;2.92;;
55776;SDS011;54079;44.540;18.784;2023-06-24T05:58:50;2.38;;;2.17;;
55776;SDS011;54079;44.540;18.784;2023-06-24T06:01:16;2.58;;;2.38;;
55776;SDS011;54079;44.540;18.784;2023-06-24T06:03:41;2.25;;;2.05;;
55776;SDS011;54079;44.540;18.784;2023-06-24T06:06:07;2.72;;;2.53;;
55776;SDS011;54079;44.540;18.784;2023-06-24T06:08:33;3.60;;;3.30;;
55776;SDS011;54079;44.540;18.784;2023-06-24T06:11:00;4.18;;;3.45;;
55776;SDS011;54079;44.540;18.784;2023-06-24T06:13:29;4.72;;;3.33;;
55776;SDS011;54079;44.540;18.784;2023-06-24T06:15:55;4.03;;;3.63;;
55776;SDS011;54079;44.540;18.784;2023-06-24T06:18:22;4.82;;;4.40;;
55776;SDS011;54079;44.540;18.784;2023-06-24T06:20:48;6.20;;;4.35;;
55776;SDS011;54079;44.540;18.784;2023-06-24T06:23:15;3.00;;;2.80;;
55776;SDS011;54079;44.540;18.784;2023-06-24T06:25:41;4.20;;;2.10;;
55776;SDS011;54079;44.540;18.784;2023-06-24T06:28:07;2.85;;;2.55;;
55776;SDS011;54079;44.540;18.784;2023-06-24T06:30:33;2.95;;;2.70;;
55776;SDS011;54079;44.540;18.784;2023-06-24T06:32:59;5.25;;;4.75;;
55776;SDS011;54079;44.540;18.784;2023-06-24T06:35:25;7.72;;;6.93;;
55776;SDS011;54079;44.540;18.784;2023-06-24T06:37:51;5.20;;;3.58;;
55776;SDS011;54079;44.540;18.784;2023-06-24T06:40:18;3.65;;;3.35;;
55776;SDS011;54079;44.540;18.784;2023-06-24T06:42:45;4.38;;;3.97;;
55776;SDS011;54079;44.540;18.784;2023-06-24T06:45:11;5.18;;;4.60;;
55776;SDS011;54079;44.540;18.784;2023-06-24T06:47:37;4.32;;;3.92;;
55776;SDS011;54079;44.540;18.784;2023-06-24T06:50:03;3.70;;;3.33;;
55776;SDS011;54079;44.540;18.784;2023-06-24T06:52:29;7.22;;;4.25;;
55776;SDS011;54079;44.540;18.784;2023-06-24T06:54:55;4.55;;;4.10;;
55776;SDS011;54079;44.540;18.784;2023-06-24T06:57:22;3.42;;;2.95;;
55776;SDS011;54079;44.540;18.784;2023-06-24T06:59:48;5.20;;;4.70;;
55776;SDS011;54079;44.540;18.784;2023-06-24T07:02:17;6.90;;;6.20;;
55776;SDS011;54079;44.540;18.784;2023-06-24T07:04:43;5.45;;;3.97;;
55776;SDS011;54079;44.540;18.784;2023-06-24T07:07:10;3.28;;;2.97;;
55776;SDS011;54079;44.540;18.784;2023-06-24T07:09:37;4.80;;;2.70;;
55776;SDS011;54079;44.540;18.784;2023-06-24T07:12:03;4.18;;;3.00;;
55776;SDS011;54079;44.540;18.784;2023-06-24T07:14:30;4.75;;;3.72;;
55776;SDS011;54079;44.540;18.784;2023-06-24T07:16:56;3.88;;;3.35;;
55776;SDS011;54079;44.540;18.784;2023-06-24T07:19:22;4.50;;;3.50;;
55776;SDS011;54079;44.540;18.784;2023-06-24T07:21:48;3.40;;;3.10;;
55776;SDS011;54079;44.540;18.784;2023-06-24T07:24:14;6.03;;;3.33;;
55776;SDS011;54079;44.540;18.784;2023-06-24T07:26:40;3.03;;;2.72;;
55776;SDS011;54079;44.540;18.784;2023-06-24T07:29:06;4.28;;;3.58;;
55776;SDS011;54079;44.540;18.784;2023-06-24T07:31:33;3.88;;;2.90;;
55776;SDS011;54079;44.540;18.784;2023-06-24T07:33:59;3.00;;;2.65;;
55776;SDS011;54079;44.540;18.784;2023-06-24T07:36:25;3.95;;;3.55;;
55776;SDS011;54079;44.540;18.784;2023-06-24T07:38:51;2.60;;;2.40;;
55776;SDS011;54079;44.540;18.784;2023-06-24T07:41:17;2.97;;;2.67;;
55776;SDS011;54079;44.540;18.784;2023-06-24T07:43:43;2.65;;;2.30;;
55776;SDS011;54079;44.540;18.784;2023-06-24T07:46:09;2.80;;;2.60;;
55776;SDS011;54079;44.540;18.784;2023-06-24T07:48:35;2.92;;;2.58;;
55776;SDS011;54079;44.540;18.784;2023-06-24T07:51:01;3.67;;;3.30;;
55776;SDS011;54079;44.540;18.784;2023-06-24T07:53:27;3.47;;;3.17;;
55776;SDS011;54079;44.540;18.784;2023-06-24T07:55:52;3.25;;;2.95;;
55776;SDS011;54079;44.540;18.784;2023-06-24T07:58:18;5.88;;;3.10;;
55776;SDS011;54079;44.540;18.784;2023-06-24T08:00:44;4.75;;;3.53;;
55776;SDS011;54079;44.540;18.784;2023-06-24T08:03:12;3.40;;;3.10;;
55776;SDS011;54079;44.540;18.784;2023-06-24T08:05:38;2.85;;;2.60;;
55776;SDS011;54079;44.540;18.784;2023-06-24T08:08:05;2.90;;;2.63;;
55776;SDS011;54079;44.540;18.784;2023-06-24T08:10:31;2.08;;;1.92;;
55776;SDS011;54079;44.540;18.784;2023-06-24T08:12:57;3.17;;;2.42;;
55776;SDS011;54079;44.540;18.784;2023-06-24T08:15:23;3.53;;;3.22;;
55776;SDS011;54079;44.540;18.784;2023-06-24T08:17:53;3.42;;;2.75;;
55776;SDS011;54079;44.540;18.784;2023-06-24T08:20:20;6.53;;;3.17;;
55776;SDS011;54079;44.540;18.784;2023-06-24T08:22:47;3.15;;;2.85;;
55776;SDS011;54079;44.540;18.784;2023-06-24T08:25:13;4.70;;;4.22;;
55776;SDS011;54079;44.540;18.784;2023-06-24T08:27:38;6.93;;;5.13;;
55776;SDS011;54079;44.540;18.784;2023-06-24T08:30:07;2.97;;;2.72;;
55776;SDS011;54079;44.540;18.784;2023-06-24T08:32:34;2.65;;;2.45;;
55776;SDS011;54079;44.540;18.784;2023-06-24T08:35:00;2.90;;;2.70;;
55776;SDS011;54079;44.540;18.784;2023-06-24T08:37:26;3.25;;;2.97;;
55776;SDS011;54079;44.540;18.784;2023-06-24T08:39:52;3.97;;;3.60;;
55776;SDS011;54079;44.540;18.784;2023-06-24T08:42:18;2.80;;;2.60;;
55776;SDS011;54079;44.540;18.784;2023-06-24T08:44:44;2.53;;;2.33;;
55776;SDS011;54079;44.540;18.784;2023-06-24T08:47:11;2.80;;;2.55;;
55776;SDS011;54079;44.540;18.784;2023-06-24T08:49:43;4.57;;;3.05;;
55776;SDS011;54079;44.540;18.784;2023-06-24T08:52:17;3.08;;;2.78;;
55776;SDS011;54079;44.540;18.784;2023-06-24T08:54:49;6.70;;;5.15;;
55776;SDS011;54079;44.540;18.784;2023-06-24T08:57:16;7.28;;;3.03;;
55776;SDS011;54079;44.540;18.784;2023-06-24T08:59:43;2.85;;;2.35;;
55776;SDS011;54079;44.540;18.784;2023-06-24T09:02:09;2.97;;;2.72;;
55776;SDS011;54079;44.540;18.784;2023-06-24T09:04:36;3.35;;;3.05;;
55776;SDS011;54079;44.540;18.784;2023-06-24T09:07:02;2.50;;;2.28;;
55776;SDS011;54079;44.540;18.784;2023-06-24T09:09:28;3.78;;;2.75;;
55776;SDS011;54079;44.540;18.784;2023-06-24T09:11:55;2.92;;;2.40;;
55776;SDS011;54079;44.540;18.784;2023-06-24T09:14:26;2.42;;;2.22;;
55776;SDS011;54079;44.540;18.784;2023-06-24T09:16:54;4.68;;;3.80;;
55776;SDS011;54079;44.540;18.784;2023-06-24T09:19:25;4.82;;;4.28;;
55776;SDS011;54079;44.540;18.784;2023-06-24T09:22:05;3.38;;;2.75;;
55776;SDS011;54079;44.540;18.784;2023-06-24T09:24:35;4.28;;;3.88;;
55776;SDS011;54079;44.540;18.784;2023-06-24T09:27:02;3.30;;;2.97;;
55776;SDS011;54079;44.540;18.784;2023-06-24T09:29:33;4.75;;;3.75;;
55776;SDS011;54079;44.540;18.784;2023-06-24T09:32:03;3.70;;;2.67;;
55776;SDS011;54079;44.540;18.784;2023-06-24T09:34:30;4.57;;;4.15;;
55776;SDS011;54079;44.540;18.784;2023-06-24T09:36:57;3.53;;;3.22;;
55776;SDS011;54079;44.540;18.784;2023-06-24T09:39:23;2.85;;;2.42;;
55776;SDS011;54079;44.540;18.784;2023-06-24T09:41:55;3.08;;;2.50;;
55776;SDS011;54079;44.540;18.784;2023-06-24T09:44:21;3.55;;;3.25;;
55776;SDS011;54079;44.540;18.784;2023-06-24T09:46:47;5.93;;;3.17;;
55776;SDS011;54079;44.540;18.784;2023-06-24T09:49:13;3.20;;;2.50;;
55776;SDS011;54079;44.540;18.784;2023-06-24T09:51:44;1.90;;;1.80;;
55776;SDS011;54079;44.540;18.784;2023-06-24T09:54:11;2.88;;;2.67;;
55776;SDS011;54079;44.540;18.784;2023-06-24T09:56:42;2.70;;;2.50;;
55776;SDS011;54079;44.540;18.784;2023-06-24T09:59:12;3.75;;;3.45;;
55776;SDS011;54079;44.540;18.784;2023-06-24T10:01:39;6.03;;;5.43;;
55776;SDS011;54079;44.540;18.784;2023-06-24T10:04:06;3.38;;;3.08;;
55776;SDS011;54079;44.540;18.784;2023-06-24T10:06:33;3.22;;;2.83;;
55776;SDS011;54079;44.540;18.784;2023-06-24T10:09:00;2.72;;;2.40;;
55776;SDS011;54079;44.540;18.784;2023-06-24T10:11:27;2.63;;;2.42;;
55776;SDS011;54079;44.540;18.784;2023-06-24T10:13:53;3.53;;;3.05;;
55776;SDS011;54079;44.540;18.784;2023-06-24T10:16:22;2.83;;;2.63;;
55776;SDS011;54079;44.540;18.784;2023-06-24T10:18:48;3.30;;;3.00;;
55776;SDS011;54079;44.540;18.784;2023-06-24T10:21:14;3.42;;;3.13;;
55776;SDS011;54079;44.540;18.784;2023-06-24T10:26:25;2.75;;;2.55;;
55776;SDS011;54079;44.540;18.784;2023-06-24T10:31:50;3.05;;;2.85;;
55776;SDS011;54079;44.540;18.784;2023-06-24T10:39:39;3.45;;;3.20;;
55776;SDS011;54079;44.540;18.784;2023-06-24T10:42:25;3.75;;;3.45;;
55776;SDS011;54079;44.540;18.784;2023-06-24T10:47:35;2.95;;;2.38;;
55776;SDS011;54079;44.540;18.784;2023-06-24T10:50:04;3.40;;;3.15;;
55776;SDS011;54079;44.540;18.784;2023-06-24T10:52:31;2.90;;;2.70;;
55776;SDS011;54079;44.540;18.784;2023-06-24T10:54:58;2.95;;;2.75;;
55776;SDS011;54079;44.540;18.784;2023-06-24T10:57:25;2.60;;;2.40;;
55776;SDS011;54079;44.540;18.784;2023-06-24T10:59:53;4.05;;;2.55;;
55776;SDS011;54079;44.540;18.784;2023-06-24T11:02:20;4.13;;;3.20;;
55776;SDS011;54079;44.540;18.784;2023-06-24T11:07:15;2.45;;;2.25;;
55776;SDS011;54079;44.540;18.784;2023-06-24T11:09:48;4.95;;;3.45;;
55776;SDS011;54079;44.540;18.784;2023-06-24T11:12:18;2.95;;;2.75;;
55776;SDS011;54079;44.540;18.784;2023-06-24T11:14:44;3.90;;;3.60;;
55776;SDS011;54079;44.540;18.784;2023-06-24T11:17:10;5.13;;;2.70;;
55776;SDS011;54079;44.540;18.784;2023-06-24T11:19:36;2.47;;;2.28;;
55776;SDS011;54079;44.540;18.784;2023-06-24T11:22:05;3.38;;;2.83;;
55776;SDS011;54079;44.540;18.784;2023-06-24T11:24:34;2.55;;;2.35;;
55776;SDS011;54079;44.540;18.784;2023-06-24T11:27:01;4.38;;;2.47;;
55776;SDS011;54079;44.540;18.784;2023-06-24T11:29:29;2.33;;;2.13;;
55776;SDS011;54079;44.540;18.784;2023-06-24T11:31:55;3.75;;;2.08;;
55776;SDS011;54079;44.540;18.784;2023-06-24T11:34:21;2.67;;;2.47;;
55776;SDS011;54079;44.540;18.784;2023-06-24T11:36:48;2.53;;;2.22;;
55776;SDS011;54079;44.540;18.784;2023-06-24T11:39:20;1.95;;;1.85;;
55776;SDS011;54079;44.540;18.784;2023-06-24T11:41:53;2.20;;;2.05;;
55776;SDS011;54079;44.540;18.784;2023-06-24T11:44:25;2.20;;;1.80;;
55776;SDS011;54079;44.540;18.784;2023-06-24T11:46:51;2.00;;;1.90;;
55776;SDS011;54079;44.540;18.784;2023-06-24T11:49:18;2.30;;;2.10;;
55776;SDS011;54079;44.540;18.784;2023-06-24T11:51:45;2.35;;;2.13;;
55776;SDS011;54079;44.540;18.784;2023-06-24T11:54:13;1.67;;;1.58;;
55776;SDS011;54079;44.540;18.784;2023-06-24T11:56:41;2.40;;;2.20;;
55776;SDS011;54079;44.540;18.784;2023-06-24T11:59:42;2.30;;;1.85;;
55776;SDS011;54079;44.540;18.784;2023-06-24T12:02:01;1.42;;;1.33;;
55776;SDS011;54079;44.540;18.784;2023-06-24T12:04:31;1.63;;;1.52;;
55776;SDS011;54079;44.540;18.784;2023-06-24T12:07:02;2.83;;;1.75;;
55776;SDS011;54079;44.540;18.784;2023-06-24T12:09:28;1.92;;;1.63;;
55776;SDS011;54079;44.540;18.784;2023-06-24T12:11:54;1.83;;;1.67;;
55776;SDS011;54079;44.540;18.784;2023-06-24T12:14:20;2.80;;;2.47;;
55776;SDS011;54079;44.540;18.784;2023-06-24T12:16:46;3.05;;;2.85;;
55776;SDS011;54079;44.540;18.784;2023-06-24T12:19:12;1.80;;;1.70;;
55776;SDS011;54079;44.540;18.784;2023-06-24T12:21:38;1.48;;;1.38;;
55776;SDS011;54079;44.540;18.784;2023-06-24T12:24:04;1.92;;;1.83;;
55776;SDS011;54079;44.540;18.784;2023-06-24T12:26:31;2.55;;;2.28;;
55776;SDS011;54079;44.540;18.784;2023-06-24T12:28:57;2.13;;;2.03;;
55776;SDS011;54079;44.540;18.784;2023-06-24T12:31:23;1.58;;;1.48;;
55776;SDS011;54079;44.540;18.784;2023-06-24T12:33:50;1.98;;;1.50;;
55776;SDS011;54079;44.540;18.784;2023-06-24T12:36:17;2.47;;;2.20;;
55776;SDS011;54079;44.540;18.784;2023-06-24T12:38:46;1.80;;;1.70;;
55776;SDS011;54079;44.540;18.784;2023-06-24T12:41:12;1.92;;;1.83;;
55776;SDS011;54079;44.540;18.784;2023-06-24T12:43:38;1.95;;;1.85;;
55776;SDS011;54079;44.540;18.784;2023-06-24T12:46:05;2.10;;;1.90;;
55776;SDS011;54079;44.540;18.784;2023-06-24T12:48:30;1.75;;;1.65;;
55776;SDS011;54079;44.540;18.784;2023-06-24T12:50:57;1.63;;;1.52;;
55776;SDS011;54079;44.540;18.784;2023-06-24T12:53:23;2.08;;;1.80;;
55776;SDS011;54079;44.540;18.784;2023-06-24T12:55:49;2.58;;;1.27;;
55776;SDS011;54079;44.540;18.784;2023-06-24T12:58:19;1.48;;;1.38;;
55776;SDS011;54079;44.540;18.784;2023-06-24T13:00:47;1.60;;;1.50;;
55776;SDS011;54079;44.540;18.784;2023-06-24T13:03:13;2.08;;;1.95;;
55776;SDS011;54079;44.540;18.784;2023-06-24T13:05:39;1.98;;;1.88;;
55776;SDS011;54079;44.540;18.784;2023-06-24T13:08:05;2.72;;;1.73;;
55776;SDS011;54079;44.540;18.784;2023-06-24T13:10:31;1.60;;;1.50;;
55776;SDS011;54079;44.540;18.784;2023-06-24T13:12:57;1.60;;;1.50;;
55776;SDS011;54079;44.540;18.784;2023-06-24T13:15:23;2.45;;;1.15;;
55776;SDS011;54079;44.540;18.784;2023-06-24T13:17:50;1.25;;;1.15;;
55776;SDS011;54079;44.540;18.784;2023-06-24T13:20:16;1.77;;;1.20;;
55776;SDS011;54079;44.540;18.784;2023-06-24T13:22:42;0.88;;;0.88;;
55776;SDS011;54079;44.540;18.784;2023-06-24T13:25:08;1.00;;;1.00;;
55776;SDS011;54079;44.540;18.784;2023-06-24T13:27:34;1.00;;;0.95;;
55776;SDS011;54079;44.540;18.784;2023-06-24T13:30:00;1.80;;;1.05;;
55776;SDS011;54079;44.540;18.784;2023-06-24T13:32:27;0.85;;;0.85;;
55776;SDS011;54079;44.540;18.784;2023-06-24T13:34:53;1.33;;;1.23;;
55776;SDS011;54079;44.540;18.784;2023-06-24T13:37:19;1.23;;;0.93;;
55776;SDS011;54079;44.540;18.784;2023-06-24T13:39:45;1.23;;;1.13;;
55776;SDS011;54079;44.540;18.784;2023-06-24T13:42:12;0.80;;;0.80;;
55776;SDS011;54079;44.540;18.784;2023-06-24T13:44:38;1.52;;;1.40;;
55776;SDS011;54079;44.540;18.784;2023-06-24T13:47:04;1.60;;;1.50;;
55776;SDS011;54079;44.540;18.784;2023-06-24T13:49:31;1.10;;;1.05;;
55776;SDS011;54079;44.540;18.784;2023-06-24T13:51:57;1.17;;;0.90;;
55776;SDS011;54079;44.540;18.784;2023-06-24T13:54:22;1.40;;;1.30;;
55776;SDS011;54079;44.540;18.784;2023-06-24T13:56:49;2.85;;;0.93;;
55776;SDS011;54079;44.540;18.784;2023-06-24T13:59:15;1.30;;;1.20;;
55776;SDS011;54079;44.540;18.784;2023-06-24T14:01:42;0.80;;;0.80;;
55776;SDS011;54079;44.540;18.784;2023-06-24T14:04:09;0.95;;;0.90;;
55776;SDS011;54079;44.540;18.784;2023-06-24T14:06:35;0.90;;;0.90;;
55776;SDS011;54079;44.540;18.784;2023-06-24T14:09:01;0.82;;;0.82;;
55776;SDS011;54079;44.540;18.784;2023-06-24T14:11:27;0.85;;;0.85;;
55776;SDS011;54079;44.540;18.784;2023-06-24T14:13:53;1.40;;;1.30;;
55776;SDS011;54079;44.540;18.784;2023-06-24T14:16:19;1.80;;;1.67;;
55776;SDS011;54079;44.540;18.784;2023-06-24T14:18:45;2.17;;;1.63;;
55776;SDS011;54079;44.540;18.784;2023-06-24T14:21:11;2.83;;;2.63;;
55776;SDS011;54079;44.540;18.784;2023-06-24T14:23:37;2.10;;;1.90;;
55776;SDS011;54079;44.540;18.784;2023-06-24T14:26:03;1.83;;;1.73;;
55776;SDS011;54079;44.540;18.784;2023-06-24T14:28:29;2.13;;;1.38;;
55776;SDS011;54079;44.540;18.784;2023-06-24T14:30:55;0.90;;;0.90;;
55776;SDS011;54079;44.540;18.784;2023-06-24T14:33:21;1.30;;;1.20;;
55776;SDS011;54079;44.540;18.784;2023-06-24T14:35:47;1.80;;;1.70;;
55776;SDS011;54079;44.540;18.784;2023-06-24T14:38:13;1.00;;;1.00;;
55776;SDS011;54079;44.540;18.784;2023-06-24T14:40:38;1.85;;;1.30;;
55776;SDS011;54079;44.540;18.784;2023-06-24T14:43:04;1.85;;;1.70;;
55776;SDS011;54079;44.540;18.784;2023-06-24T14:45:30;1.75;;;1.65;;
55776;SDS011;54079;44.540;18.784;2023-06-24T14:47:56;1.48;;;1.38;;
55776;SDS011;54079;44.540;18.784;2023-06-24T14:50:22;1.27;;;1.17;;
55776;SDS011;54079;44.540;18.784;2023-06-24T14:52:49;1.95;;;1.67;;
55776;SDS011;54079;44.540;18.784;2023-06-24T14:55:15;2.33;;;1.58;;
55776;SDS011;54079;44.540;18.784;2023-06-24T14:57:41;1.30;;;1.17;;
55776;SDS011;54079;44.540;18.784;2023-06-24T15:00:07;1.38;;;1.27;;